Eizo Maru — JD2944 — position and weather

sailwx.info

Track history (hours):
 
Tides and Currents Weather Stations Pressure Air Temp Water Temp Dewpoint Dewpoint Depression Visibility Wind Speed Wind Dir Waves Ship Positions

Eizo Maru

Last reported at 2016-Aug-25 11:17 UTC. Time now 2016-Aug-30 01:15 UTC.
Position N 35°12' E 139°46'.

Length 80 m; draft 5.3 m.

Type: Tanker. MMSI: 431000976.

Date/timePositionNaut miles runAvg speedWind from/ knotsBaromVisibWave heightAir tempDewpointWater temp
2016-Aug-25 11:17N 35°12' E 139°46'912.0
2016-Aug-25 10:33N 35°20' E 139°42'1111.1
2016-Aug-25 09:33N 35°30' E 139°47'0 0.3
2016-Aug-25 08:31N 35°31' E 139°46'0 0.0
2016-Aug-25 07:31N 35°31' E 139°46'0 0.0
2016-Aug-25 06:28N 35°31' E 139°46'2 1.2
2016-Aug-25 04:32N 35°29' E 139°48'0 0.0
2016-Aug-25 03:32N 35°29' E 139°48'0 0.0
2016-Aug-25 02:32N 35°29' E 139°48'0 0.0
2016-Aug-25 01:32N 35°29' E 139°48'0 0.0
2016-Aug-25 00:32N 35°29' E 139°48'0 0.0
2016-Aug-24 23:32N 35°29' E 139°48'0 0.0
2016-Aug-24 22:32N 35°29' E 139°48'0 0.0
2016-Aug-24 21:32N 35°29' E 139°48'0 0.0
2016-Aug-24 20:32N 35°29' E 139°48'0 0.0
2016-Aug-24 19:32N 35°29' E 139°48'6 6.3
2016-Aug-24 18:33N 35°23' E 139°45'1211.8
2016-Aug-24 17:33N 35°11' E 139°46'1412.9
2016-Aug-24 16:29N 35°00' E 139°36'4 0.1
2016-Aug-23 08:29N 35°02' E 139°31'1213.2
2016-Aug-23 07:33N 35°09' E 139°43'1111.1
2016-Aug-23 06:33N 35°20' E 139°43'1110.9
2016-Aug-23 05:33N 35°30' E 139°47'0 0.3
2016-Aug-23 04:31N 35°31' E 139°46'0 0.0
2016-Aug-23 03:19N 35°31' E 139°46'0 0.0
2016-Aug-23 02:28N 35°31' E 139°46'1 1.2
2016-Aug-23 01:33N 35°30' E 139°48'9 9.0
2016-Aug-23 00:33N 35°21' E 139°45'1212.1
2016-Aug-22 23:33N 35°09' E 139°46'  
2016-Aug-19 11:33N 35°13' E 139°46'1212.2
2016-Aug-19 10:33N 35°25' E 139°43'6 6.1
2016-Aug-19 09:30N 35°31' E 139°46'0 0.0
2016-Aug-19 08:33N 35°31' E 139°46'0 0.0
2016-Aug-19 07:24N 35°31' E 139°46'0 0.0
2016-Aug-19 06:34N 35°31' E 139°46'3 2.7
2016-Aug-19 05:33N 35°29' E 139°49'2 1.9
2016-Aug-19 04:33N 35°27' E 139°48'1211.9
2016-Aug-19 03:33N 35°15' E 139°47'1312.3
2016-Aug-19 02:31N 35°03' E 139°42'  
Track history (hours):
 
Tides and Currents Weather Stations Pressure Air Temp Water Temp Dewpoint Dewpoint Depression Visibility Wind Speed Wind Dir Waves Ship Positions

Eizo Maru

Last reported at 2016-Aug-25 11:17 UTC. Time now 2016-Aug-30 01:15 UTC.
Position N 35°12' E 139°46'.

Length 80 m; draft 5.3 m.

Type: Tanker. MMSI: 431000976.

Date/timePositionNaut miles runAvg speedWind from/ knotsBaromVisibWave heightAir tempDewpointWater temp
2016-Aug-25 11:17N 35°12' E 139°46'912.0
2016-Aug-25 10:33N 35°20' E 139°42'1111.1
2016-Aug-25 09:33N 35°30' E 139°47'0 0.3
2016-Aug-25 08:31N 35°31' E 139°46'0 0.0
2016-Aug-25 07:31N 35°31' E 139°46'0 0.0
2016-Aug-25 06:28N 35°31' E 139°46'2 1.2
2016-Aug-25 04:32N 35°29' E 139°48'0 0.0
2016-Aug-25 03:32N 35°29' E 139°48'0 0.0
2016-Aug-25 02:32N 35°29' E 139°48'0 0.0
2016-Aug-25 01:32N 35°29' E 139°48'0 0.0
2016-Aug-25 00:32N 35°29' E 139°48'0 0.0
2016-Aug-24 23:32N 35°29' E 139°48'0 0.0
2016-Aug-24 22:32N 35°29' E 139°48'0 0.0
2016-Aug-24 21:32N 35°29' E 139°48'0 0.0
2016-Aug-24 20:32N 35°29' E 139°48'0 0.0
2016-Aug-24 19:32N 35°29' E 139°48'6 6.3
2016-Aug-24 18:33N 35°23' E 139°45'1211.8
2016-Aug-24 17:33N 35°11' E 139°46'1412.9
2016-Aug-24 16:29N 35°00' E 139°36'4 0.1
2016-Aug-23 08:29N 35°02' E 139°31'1213.2
2016-Aug-23 07:33N 35°09' E 139°43'1111.1
2016-Aug-23 06:33N 35°20' E 139°43'1110.9
2016-Aug-23 05:33N 35°30' E 139°47'0 0.3
2016-Aug-23 04:31N 35°31' E 139°46'0 0.0
2016-Aug-23 03:19N 35°31' E 139°46'0 0.0
2016-Aug-23 02:28N 35°31' E 139°46'1 1.2
2016-Aug-23 01:33N 35°30' E 139°48'9 9.0
2016-Aug-23 00:33N 35°21' E 139°45'1212.1
2016-Aug-22 23:33N 35°09' E 139°46'  
2016-Aug-19 11:33N 35°13' E 139°46'1212.2
2016-Aug-19 10:33N 35°25' E 139°43'6 6.1
2016-Aug-19 09:30N 35°31' E 139°46'0 0.0
2016-Aug-19 08:33N 35°31' E 139°46'0 0.0
2016-Aug-19 07:24N 35°31' E 139°46'0 0.0
2016-Aug-19 06:34N 35°31' E 139°46'3 2.7
2016-Aug-19 05:33N 35°29' E 139°49'2 1.9
2016-Aug-19 04:33N 35°27' E 139°48'1211.9
2016-Aug-19 03:33N 35°15' E 139°47'1312.3
2016-Aug-19 02:31N 35°03' E 139°42'  

Dump ship's entire track history